sensor_id;sensor_type;location;lat;lon;timestamp;temperature;humidity
578;DHT22;275;48.492;9.214;2023-12-29T00:01:59;12.60;28.90
578;DHT22;275;48.492;9.214;2023-12-29T00:04:25;12.70;29.10
578;DHT22;275;48.492;9.214;2023-12-29T00:06:52;13.00;28.50
578;DHT22;275;48.492;9.214;2023-12-29T00:09:18;12.30;29.40
578;DHT22;275;48.492;9.214;2023-12-29T00:11:46;12.20;29.30
578;DHT22;275;48.492;9.214;2023-12-29T00:14:13;12.40;29.50
578;DHT22;275;48.492;9.214;2023-12-29T00:16:41;12.20;29.20
578;DHT22;275;48.492;9.214;2023-12-29T00:19:09;12.20;29.30
578;DHT22;275;48.492;9.214;2023-12-29T00:21:36;12.30;29.40
578;DHT22;275;48.492;9.214;2023-12-29T00:24:04;12.20;29.30
578;DHT22;275;48.492;9.214;2023-12-29T00:26:31;12.40;28.20
578;DHT22;275;48.492;9.214;2023-12-29T00:28:58;12.30;29.00
578;DHT22;275;48.492;9.214;2023-12-29T00:31:24;12.40;28.40
578;DHT22;275;48.492;9.214;2023-12-29T00:33:53;12.10;29.20
578;DHT22;275;48.492;9.214;2023-12-29T00:36:20;12.50;28.40
578;DHT22;275;48.492;9.214;2023-12-29T00:38:47;12.50;27.90
578;DHT22;275;48.492;9.214;2023-12-29T00:41:13;12.40;28.20
578;DHT22;275;48.492;9.214;2023-12-29T00:43:40;12.60;27.80
578;DHT22;275;48.492;9.214;2023-12-29T00:46:07;12.60;27.60
578;DHT22;275;48.492;9.214;2023-12-29T00:48:34;12.70;26.90
578;DHT22;275;48.492;9.214;2023-12-29T00:51:03;12.50;27.50
578;DHT22;275;48.492;9.214;2023-12-29T00:53:30;12.90;26.90
578;DHT22;275;48.492;9.214;2023-12-29T00:55:57;12.80;26.70
578;DHT22;275;48.492;9.214;2023-12-29T00:58:25;12.40;27.30
578;DHT22;275;48.492;9.214;2023-12-29T01:00:51;12.40;27.70
578;DHT22;275;48.492;9.214;2023-12-29T01:03:18;12.40;27.70
578;DHT22;275;48.492;9.214;2023-12-29T01:05:45;12.60;27.50
578;DHT22;275;48.492;9.214;2023-12-29T01:08:13;12.90;26.40
578;DHT22;275;48.492;9.214;2023-12-29T01:10:40;12.60;27.00
578;DHT22;275;48.492;9.214;2023-12-29T01:13:07;12.60;27.30
578;DHT22;275;48.492;9.214;2023-12-29T01:15:34;12.70;27.20
578;DHT22;275;48.492;9.214;2023-12-29T01:18:01;12.80;27.40
578;DHT22;275;48.492;9.214;2023-12-29T01:20:27;13.00;27.20
578;DHT22;275;48.492;9.214;2023-12-29T01:22:54;12.80;27.50
578;DHT22;275;48.492;9.214;2023-12-29T01:25:22;12.70;27.90
578;DHT22;275;48.492;9.214;2023-12-29T01:27:49;12.80;28.60
578;DHT22;275;48.492;9.214;2023-12-29T01:30:16;12.30;29.10
578;DHT22;275;48.492;9.214;2023-12-29T01:32:43;12.40;29.40
578;DHT22;275;48.492;9.214;2023-12-29T01:35:10;12.30;29.20
578;DHT22;275;48.492;9.214;2023-12-29T01:37:37;12.30;29.40
578;DHT22;275;48.492;9.214;2023-12-29T01:40:04;12.20;29.40
578;DHT22;275;48.492;9.214;2023-12-29T01:42:33;12.30;29.40
578;DHT22;275;48.492;9.214;2023-12-29T01:45:00;12.40;29.10
578;DHT22;275;48.492;9.214;2023-12-29T01:47:27;12.30;29.30
578;DHT22;275;48.492;9.214;2023-12-29T01:49:54;12.40;29.30
578;DHT22;275;48.492;9.214;2023-12-29T01:52:22;12.60;29.10
578;DHT22;275;48.492;9.214;2023-12-29T01:54:49;12.20;29.80
578;DHT22;275;48.492;9.214;2023-12-29T01:57:18;12.20;30.10
578;DHT22;275;48.492;9.214;2023-12-29T01:59:47;11.90;30.80
578;DHT22;275;48.492;9.214;2023-12-29T02:02:15;11.90;31.70
578;DHT22;275;48.492;9.214;2023-12-29T02:04:42;12.10;30.80
578;DHT22;275;48.492;9.214;2023-12-29T02:07:09;12.10;30.40
578;DHT22;275;48.492;9.214;2023-12-29T02:09:36;12.00;31.40
578;DHT22;275;48.492;9.214;2023-12-29T02:12:03;11.70;32.10
578;DHT22;275;48.492;9.214;2023-12-29T02:14:30;11.60;32.50
578;DHT22;275;48.492;9.214;2023-12-29T02:17:05;12.00;31.70
578;DHT22;275;48.492;9.214;2023-12-29T02:19:38;11.90;32.10
578;DHT22;275;48.492;9.214;2023-12-29T02:22:04;11.40;33.50
578;DHT22;275;48.492;9.214;2023-12-29T02:24:33;11.40;34.70
578;DHT22;275;48.492;9.214;2023-12-29T02:27:07;11.40;34.20
578;DHT22;275;48.492;9.214;2023-12-29T02:29:38;11.30;34.90
578;DHT22;275;48.492;9.214;2023-12-29T02:32:09;11.70;33.80
578;DHT22;275;48.492;9.214;2023-12-29T02:34:38;11.70;33.20
578;DHT22;275;48.492;9.214;2023-12-29T02:37:08;11.40;34.10
578;DHT22;275;48.492;9.214;2023-12-29T02:39:36;11.40;34.30
578;DHT22;275;48.492;9.214;2023-12-29T02:42:05;11.70;33.40
578;DHT22;275;48.492;9.214;2023-12-29T02:44:32;11.70;33.70
578;DHT22;275;48.492;9.214;2023-12-29T02:46:58;11.50;34.40
578;DHT22;275;48.492;9.214;2023-12-29T02:49:26;12.00;33.20
578;DHT22;275;48.492;9.214;2023-12-29T02:51:53;11.90;32.80
578;DHT22;275;48.492;9.214;2023-12-29T02:54:20;11.90;33.20
578;DHT22;275;48.492;9.214;2023-12-29T02:56:47;11.70;33.30
578;DHT22;275;48.492;9.214;2023-12-29T02:59:15;11.60;33.30
578;DHT22;275;48.492;9.214;2023-12-29T03:01:42;11.50;33.40
578;DHT22;275;48.492;9.214;2023-12-29T03:04:09;12.00;32.40
578;DHT22;275;48.492;9.214;2023-12-29T03:06:36;12.40;31.00
578;DHT22;275;48.492;9.214;2023-12-29T03:09:02;12.10;31.90
578;DHT22;275;48.492;9.214;2023-12-29T03:11:29;12.10;31.80
578;DHT22;275;48.492;9.214;2023-12-29T03:13:57;11.80;32.80
578;DHT22;275;48.492;9.214;2023-12-29T03:16:25;11.60;33.50
578;DHT22;275;48.492;9.214;2023-12-29T03:18:52;11.50;34.20
578;DHT22;275;48.492;9.214;2023-12-29T03:21:19;12.00;34.10
578;DHT22;275;48.492;9.214;2023-12-29T03:23:46;12.20;32.80
578;DHT22;275;48.492;9.214;2023-12-29T03:26:13;11.50;35.10
578;DHT22;275;48.492;9.214;2023-12-29T03:28:40;11.40;35.70
578;DHT22;275;48.492;9.214;2023-12-29T03:31:06;11.10;36.40
578;DHT22;275;48.492;9.214;2023-12-29T03:33:34;11.10;37.50
578;DHT22;275;48.492;9.214;2023-12-29T03:36:01;11.10;36.80
578;DHT22;275;48.492;9.214;2023-12-29T03:38:28;10.90;38.40
578;DHT22;275;48.492;9.214;2023-12-29T03:40:55;11.10;37.60
578;DHT22;275;48.492;9.214;2023-12-29T03:43:22;11.10;37.70
578;DHT22;275;48.492;9.214;2023-12-29T03:45:48;11.50;36.30
578;DHT22;275;48.492;9.214;2023-12-29T03:48:15;11.40;36.50
578;DHT22;275;48.492;9.214;2023-12-29T03:50:43;11.10;37.60
578;DHT22;275;48.492;9.214;2023-12-29T03:53:10;11.00;37.90
578;DHT22;275;48.492;9.214;2023-12-29T03:55:37;10.70;39.30
578;DHT22;275;48.492;9.214;2023-12-29T03:58:04;11.00;38.20
578;DHT22;275;48.492;9.214;2023-12-29T04:00:31;11.20;37.50
578;DHT22;275;48.492;9.214;2023-12-29T04:02:58;11.20;37.80
578;DHT22;275;48.492;9.214;2023-12-29T04:05:25;11.20;38.20
578;DHT22;275;48.492;9.214;2023-12-29T04:07:53;11.20;37.40
578;DHT22;275;48.492;9.214;2023-12-29T04:10:20;11.50;37.80
578;DHT22;275;48.492;9.214;2023-12-29T04:12:46;11.60;36.60
578;DHT22;275;48.492;9.214;2023-12-29T04:15:13;11.30;37.40
578;DHT22;275;48.492;9.214;2023-12-29T04:17:40;11.30;37.60
578;DHT22;275;48.492;9.214;2023-12-29T04:20:07;11.60;36.60
578;DHT22;275;48.492;9.214;2023-12-29T04:22:34;11.30;37.60
578;DHT22;275;48.492;9.214;2023-12-29T04:25:03;11.40;37.10
578;DHT22;275;48.492;9.214;2023-12-29T04:27:30;11.30;37.90
578;DHT22;275;48.492;9.214;2023-12-29T04:29:57;11.60;36.90
578;DHT22;275;48.492;9.214;2023-12-29T04:32:23;11.90;35.90
578;DHT22;275;48.492;9.214;2023-12-29T04:34:51;11.60;36.70
578;DHT22;275;48.492;9.214;2023-12-29T04:37:18;11.50;37.30
578;DHT22;275;48.492;9.214;2023-12-29T04:39:44;11.50;37.50
578;DHT22;275;48.492;9.214;2023-12-29T04:42:12;11.50;37.20
578;DHT22;275;48.492;9.214;2023-12-29T04:44:39;11.50;37.50
578;DHT22;275;48.492;9.214;2023-12-29T04:47:06;11.60;37.30
578;DHT22;275;48.492;9.214;2023-12-29T04:49:33;12.00;36.30
578;DHT22;275;48.492;9.214;2023-12-29T04:52:00;11.90;36.30
578;DHT22;275;48.492;9.214;2023-12-29T04:54:27;11.80;36.70
578;DHT22;275;48.492;9.214;2023-12-29T04:56:53;11.80;36.80
578;DHT22;275;48.492;9.214;2023-12-29T04:59:22;11.80;36.80
578;DHT22;275;48.492;9.214;2023-12-29T05:01:48;11.70;37.10
578;DHT22;275;48.492;9.214;2023-12-29T05:04:15;12.10;35.80
578;DHT22;275;48.492;9.214;2023-12-29T05:06:42;12.00;36.00
578;DHT22;275;48.492;9.214;2023-12-29T05:09:09;12.40;34.80
578;DHT22;275;48.492;9.214;2023-12-29T05:11:36;12.20;36.30
578;DHT22;275;48.492;9.214;2023-12-29T05:14:02;12.10;35.80
578;DHT22;275;48.492;9.214;2023-12-29T05:16:31;12.00;36.10
578;DHT22;275;48.492;9.214;2023-12-29T05:18:57;11.60;37.30
578;DHT22;275;48.492;9.214;2023-12-29T05:21:25;11.50;37.50
578;DHT22;275;48.492;9.214;2023-12-29T05:23:52;11.60;37.50
578;DHT22;275;48.492;9.214;2023-12-29T05:26:19;11.80;37.30
578;DHT22;275;48.492;9.214;2023-12-29T05:28:45;12.00;36.50
578;DHT22;275;48.492;9.214;2023-12-29T05:31:12;11.50;38.10
578;DHT22;275;48.492;9.214;2023-12-29T05:33:40;11.40;38.60
578;DHT22;275;48.492;9.214;2023-12-29T05:36:09;11.50;38.10
578;DHT22;275;48.492;9.214;2023-12-29T05:38:36;11.50;38.20
578;DHT22;275;48.492;9.214;2023-12-29T05:41:04;11.40;38.50
578;DHT22;275;48.492;9.214;2023-12-29T05:43:32;11.80;37.50
578;DHT22;275;48.492;9.214;2023-12-29T05:45:59;11.90;36.70
578;DHT22;275;48.492;9.214;2023-12-29T05:48:26;12.10;36.50
578;DHT22;275;48.492;9.214;2023-12-29T05:50:55;12.30;35.50
578;DHT22;275;48.492;9.214;2023-12-29T05:53:21;12.70;35.20
578;DHT22;275;48.492;9.214;2023-12-29T05:55:48;12.80;34.10
578;DHT22;275;48.492;9.214;2023-12-29T05:58:15;12.40;35.60
578;DHT22;275;48.492;9.214;2023-12-29T06:00:42;12.50;35.40
578;DHT22;275;48.492;9.214;2023-12-29T06:03:10;12.40;35.80
578;DHT22;275;48.492;9.214;2023-12-29T06:05:37;12.40;35.90
578;DHT22;275;48.492;9.214;2023-12-29T06:08:06;12.50;35.50
578;DHT22;275;48.492;9.214;2023-12-29T06:10:32;11.80;37.70
578;DHT22;275;48.492;9.214;2023-12-29T06:13:01;12.10;37.00
578;DHT22;275;48.492;9.214;2023-12-29T06:15:29;12.20;36.60
578;DHT22;275;48.492;9.214;2023-12-29T06:17:56;12.40;36.10
578;DHT22;275;48.492;9.214;2023-12-29T06:20:23;12.90;34.60
578;DHT22;275;48.492;9.214;2023-12-29T06:22:50;12.40;35.60
578;DHT22;275;48.492;9.214;2023-12-29T06:25:18;11.90;37.50
578;DHT22;275;48.492;9.214;2023-12-29T06:27:45;12.20;36.80
578;DHT22;275;48.492;9.214;2023-12-29T06:30:12;12.10;37.00
578;DHT22;275;48.492;9.214;2023-12-29T06:32:40;12.40;36.00
578;DHT22;275;48.492;9.214;2023-12-29T06:35:07;12.60;35.50
578;DHT22;275;48.492;9.214;2023-12-29T06:37:36;12.90;34.30
578;DHT22;275;48.492;9.214;2023-12-29T06:40:04;12.40;35.50
578;DHT22;275;48.492;9.214;2023-12-29T06:42:33;12.60;34.90
578;DHT22;275;48.492;9.214;2023-12-29T06:45:00;12.80;34.30
578;DHT22;275;48.492;9.214;2023-12-29T06:47:26;12.80;34.00
578;DHT22;275;48.492;9.214;2023-12-29T06:49:53;12.50;35.30
578;DHT22;275;48.492;9.214;2023-12-29T06:52:20;12.50;35.70
578;DHT22;275;48.492;9.214;2023-12-29T06:54:47;12.30;35.70
578;DHT22;275;48.492;9.214;2023-12-29T06:57:13;11.90;37.30
578;DHT22;275;48.492;9.214;2023-12-29T06:59:43;11.90;37.30
578;DHT22;275;48.492;9.214;2023-12-29T07:02:10;12.40;35.10
578;DHT22;275;48.492;9.214;2023-12-29T07:04:41;12.30;35.40
578;DHT22;275;48.492;9.214;2023-12-29T07:07:08;12.20;36.30
578;DHT22;275;48.492;9.214;2023-12-29T07:09:38;12.10;35.90
578;DHT22;275;48.492;9.214;2023-12-29T07:12:05;12.40;35.30
578;DHT22;275;48.492;9.214;2023-12-29T07:14:32;12.30;35.10
578;DHT22;275;48.492;9.214;2023-12-29T07:17:00;12.10;35.50
578;DHT22;275;48.492;9.214;2023-12-29T07:19:27;12.00;35.50
578;DHT22;275;48.492;9.214;2023-12-29T07:22:02;12.20;35.30
578;DHT22;275;48.492;9.214;2023-12-29T07:24:30;12.50;34.20
578;DHT22;275;48.492;9.214;2023-12-29T07:26:57;12.20;34.00
578;DHT22;275;48.492;9.214;2023-12-29T07:29:24;12.30;34.40
578;DHT22;275;48.492;9.214;2023-12-29T07:31:51;12.40;34.00
578;DHT22;275;48.492;9.214;2023-12-29T07:34:19;12.10;34.80
578;DHT22;275;48.492;9.214;2023-12-29T07:36:46;11.90;35.30
578;DHT22;275;48.492;9.214;2023-12-29T07:39:13;12.20;34.60
578;DHT22;275;48.492;9.214;2023-12-29T07:41:40;12.20;35.00
578;DHT22;275;48.492;9.214;2023-12-29T07:44:07;12.30;34.40
578;DHT22;275;48.492;9.214;2023-12-29T07:46:34;12.40;34.30
578;DHT22;275;48.492;9.214;2023-12-29T07:49:01;12.60;33.30
578;DHT22;275;48.492;9.214;2023-12-29T07:51:30;12.50;33.70
578;DHT22;275;48.492;9.214;2023-12-29T07:53:58;12.50;33.70
578;DHT22;275;48.492;9.214;2023-12-29T07:56:25;12.90;32.70
578;DHT22;275;48.492;9.214;2023-12-29T07:58:51;12.80;32.60
578;DHT22;275;48.492;9.214;2023-12-29T08:01:18;12.20;34.20
578;DHT22;275;48.492;9.214;2023-12-29T08:03:45;11.80;35.50
578;DHT22;275;48.492;9.214;2023-12-29T08:06:12;11.90;35.50
578;DHT22;275;48.492;9.214;2023-12-29T08:08:40;12.00;35.50
578;DHT22;275;48.492;9.214;2023-12-29T08:11:13;12.40;34.00
578;DHT22;275;48.492;9.214;2023-12-29T08:13:41;12.20;34.80
578;DHT22;275;48.492;9.214;2023-12-29T08:16:08;12.70;33.50
578;DHT22;275;48.492;9.214;2023-12-29T08:18:34;12.20;35.20
578;DHT22;275;48.492;9.214;2023-12-29T08:21:02;12.10;35.00
578;DHT22;275;48.492;9.214;2023-12-29T08:23:28;12.20;34.60
578;DHT22;275;48.492;9.214;2023-12-29T08:25:57;12.50;34.60
578;DHT22;275;48.492;9.214;2023-12-29T08:28:24;12.40;34.60
578;DHT22;275;48.492;9.214;2023-12-29T08:30:51;13.00;33.00
578;DHT22;275;48.492;9.214;2023-12-29T08:33:18;12.80;33.60
578;DHT22;275;48.492;9.214;2023-12-29T08:35:45;13.10;33.20
578;DHT22;275;48.492;9.214;2023-12-29T08:38:12;13.30;31.80
578;DHT22;275;48.492;9.214;2023-12-29T08:40:39;13.10;33.00
578;DHT22;275;48.492;9.214;2023-12-29T08:43:08;12.70;33.90
578;DHT22;275;48.492;9.214;2023-12-29T08:45:37;12.50;34.50
578;DHT22;275;48.492;9.214;2023-12-29T08:48:05;12.50;34.30
578;DHT22;275;48.492;9.214;2023-12-29T08:50:32;12.70;34.00
578;DHT22;275;48.492;9.214;2023-12-29T08:52:58;12.50;33.80
578;DHT22;275;48.492;9.214;2023-12-29T08:55:25;12.40;34.60
578;DHT22;275;48.492;9.214;2023-12-29T08:57:52;13.00;33.30
578;DHT22;275;48.492;9.214;2023-12-29T09:00:21;12.80;33.20
578;DHT22;275;48.492;9.214;2023-12-29T09:02:48;12.60;33.40
578;DHT22;275;48.492;9.214;2023-12-29T09:05:15;13.00;32.70
578;DHT22;275;48.492;9.214;2023-12-29T09:07:42;13.40;31.40
578;DHT22;275;48.492;9.214;2023-12-29T09:10:09;14.00;31.10
578;DHT22;275;48.492;9.214;2023-12-29T09:12:38;13.80;30.00
578;DHT22;275;48.492;9.214;2023-12-29T09:15:06;13.90;29.70
578;DHT22;275;48.492;9.214;2023-12-29T09:17:34;14.30;29.40
578;DHT22;275;48.492;9.214;2023-12-29T09:20:01;14.00;28.70
578;DHT22;275;48.492;9.214;2023-12-29T09:22:28;14.10;29.10
578;DHT22;275;48.492;9.214;2023-12-29T09:24:55;13.50;29.70
578;DHT22;275;48.492;9.214;2023-12-29T09:27:22;13.30;30.20
578;DHT22;275;48.492;9.214;2023-12-29T09:29:49;13.40;30.00
578;DHT22;275;48.492;9.214;2023-12-29T09:32:16;13.70;29.40
578;DHT22;275;48.492;9.214;2023-12-29T09:34:44;13.70;29.30
578;DHT22;275;48.492;9.214;2023-12-29T09:37:11;13.30;29.70
578;DHT22;275;48.492;9.214;2023-12-29T09:39:39;13.60;29.80
578;DHT22;275;48.492;9.214;2023-12-29T09:42:07;13.90;28.70
578;DHT22;275;48.492;9.214;2023-12-29T09:44:36;13.30;29.40
578;DHT22;275;48.492;9.214;2023-12-29T09:47:04;13.30;30.00
578;DHT22;275;48.492;9.214;2023-12-29T09:49:37;13.40;29.70
578;DHT22;275;48.492;9.214;2023-12-29T09:52:07;13.40;29.90
578;DHT22;275;48.492;9.214;2023-12-29T09:54:36;13.60;29.40
578;DHT22;275;48.492;9.214;2023-12-29T09:57:04;13.60;29.50
578;DHT22;275;48.492;9.214;2023-12-29T09:59:33;14.20;28.60
578;DHT22;275;48.492;9.214;2023-12-29T10:02:03;14.20;28.60
578;DHT22;275;48.492;9.214;2023-12-29T10:04:31;14.50;28.10
578;DHT22;275;48.492;9.214;2023-12-29T10:07:02;14.40;28.10
578;DHT22;275;48.492;9.214;2023-12-29T10:09:33;15.10;27.50
578;DHT22;275;48.492;9.214;2023-12-29T10:12:02;15.30;27.10
578;DHT22;275;48.492;9.214;2023-12-29T10:14:34;14.80;27.20
578;DHT22;275;48.492;9.214;2023-12-29T10:17:09;14.10;28.60
578;DHT22;275;48.492;9.214;2023-12-29T10:19:39;13.70;29.20
578;DHT22;275;48.492;9.214;2023-12-29T10:22:11;13.40;29.50
578;DHT22;275;48.492;9.214;2023-12-29T10:24:41;13.40;29.70
578;DHT22;275;48.492;9.214;2023-12-29T10:27:11;14.00;29.30
578;DHT22;275;48.492;9.214;2023-12-29T10:29:38;14.10;28.20
578;DHT22;275;48.492;9.214;2023-12-29T10:32:05;14.00;28.70
578;DHT22;275;48.492;9.214;2023-12-29T10:34:32;14.50;28.00
578;DHT22;275;48.492;9.214;2023-12-29T10:37:00;14.80;27.30
578;DHT22;275;48.492;9.214;2023-12-29T10:39:28;14.00;28.10
578;DHT22;275;48.492;9.214;2023-12-29T10:42:04;13.80;29.00
578;DHT22;275;48.492;9.214;2023-12-29T10:44:32;14.50;27.40
578;DHT22;275;48.492;9.214;2023-12-29T10:47:07;13.80;28.10
578;DHT22;275;48.492;9.214;2023-12-29T10:49:34;13.50;28.70
578;DHT22;275;48.492;9.214;2023-12-29T10:52:11;14.10;28.50
578;DHT22;275;48.492;9.214;2023-12-29T10:54:38;13.80;28.00
578;DHT22;275;48.492;9.214;2023-12-29T10:57:08;13.40;29.00
578;DHT22;275;48.492;9.214;2023-12-29T10:59:37;13.60;28.80
578;DHT22;275;48.492;9.214;2023-12-29T11:02:04;14.20;27.50
578;DHT22;275;48.492;9.214;2023-12-29T11:04:31;13.80;27.90
578;DHT22;275;48.492;9.214;2023-12-29T11:06:57;13.90;27.90
578;DHT22;275;48.492;9.214;2023-12-29T11:09:28;14.10;27.50
578;DHT22;275;48.492;9.214;2023-12-29T11:11:58;14.10;27.60
578;DHT22;275;48.492;9.214;2023-12-29T11:14:27;14.30;27.50
578;DHT22;275;48.492;9.214;2023-12-29T11:16:56;14.00;27.10
578;DHT22;275;48.492;9.214;2023-12-29T11:19:24;14.20;27.80
578;DHT22;275;48.492;9.214;2023-12-29T11:21:53;15.60;25.70
578;DHT22;275;48.492;9.214;2023-12-29T11:24:21;15.70;25.00
578;DHT22;275;48.492;9.214;2023-12-29T11:26:49;14.80;25.80
578;DHT22;275;48.492;9.214;2023-12-29T11:29:17;14.10;27.40
578;DHT22;275;48.492;9.214;2023-12-29T11:31:47;14.30;26.70
578;DHT22;275;48.492;9.214;2023-12-29T11:34:20;14.40;27.10
578;DHT22;275;48.492;9.214;2023-12-29T11:36:50;14.20;27.20
578;DHT22;275;48.492;9.214;2023-12-29T11:39:26;14.40;26.80
578;DHT22;275;48.492;9.214;2023-12-29T11:42:01;14.20;27.40
578;DHT22;275;48.492;9.214;2023-12-29T11:44:29;14.30;27.30
578;DHT22;275;48.492;9.214;2023-12-29T11:47:00;13.90;28.50
578;DHT22;275;48.492;9.214;2023-12-29T11:52:33;13.30;30.00
578;DHT22;275;48.492;9.214;2023-12-29T11:55:07;14.00;29.50
578;DHT22;275;48.492;9.214;2023-12-29T11:57:34;14.00;28.90
578;DHT22;275;48.492;9.214;2023-12-29T12:00:02;13.50;30.20
578;DHT22;275;48.492;9.214;2023-12-29T12:02:32;13.20;31.40
578;DHT22;275;48.492;9.214;2023-12-29T12:04:59;13.40;31.20
578;DHT22;275;48.492;9.214;2023-12-29T12:07:57;13.10;32.00
578;DHT22;275;48.492;9.214;2023-12-29T12:10:30;13.70;31.00
578;DHT22;275;48.492;9.214;2023-12-29T12:12:59;13.70;30.50
578;DHT22;275;48.492;9.214;2023-12-29T12:15:32;13.30;31.70
578;DHT22;275;48.492;9.214;2023-12-29T12:18:02;13.60;30.20
578;DHT22;275;48.492;9.214;2023-12-29T12:20:31;13.10;32.00
578;DHT22;275;48.492;9.214;2023-12-29T12:23:00;13.80;29.70
578;DHT22;275;48.492;9.214;2023-12-29T12:25:28;13.70;29.80
578;DHT22;275;48.492;9.214;2023-12-29T12:27:56;13.10;30.80
578;DHT22;275;48.492;9.214;2023-12-29T12:30:23;13.20;30.60
578;DHT22;275;48.492;9.214;2023-12-29T12:32:57;13.40;30.10
578;DHT22;275;48.492;9.214;2023-12-29T12:35:26;13.70;29.60
578;DHT22;275;48.492;9.214;2023-12-29T12:38:07;13.40;29.90
578;DHT22;275;48.492;9.214;2023-12-29T12:40:34;13.00;30.10
578;DHT22;275;48.492;9.214;2023-12-29T12:43:01;13.10;30.00
578;DHT22;275;48.492;9.214;2023-12-29T12:45:29;13.60;29.00
578;DHT22;275;48.492;9.214;2023-12-29T12:48:02;14.30;27.70
578;DHT22;275;48.492;9.214;2023-12-29T12:50:31;14.00;28.10
578;DHT22;275;48.492;9.214;2023-12-29T12:52:57;14.40;27.10
578;DHT22;275;48.492;9.214;2023-12-29T12:55:24;14.00;27.70
578;DHT22;275;48.492;9.214;2023-12-29T12:57:54;13.90;28.10
578;DHT22;275;48.492;9.214;2023-12-29T13:00:22;14.30;26.20
578;DHT22;275;48.492;9.214;2023-12-29T13:02:49;15.10;26.00
578;DHT22;275;48.492;9.214;2023-12-29T13:05:16;15.80;24.80
578;DHT22;275;48.492;9.214;2023-12-29T13:07:45;15.20;25.30
578;DHT22;275;48.492;9.214;2023-12-29T13:10:12;14.00;27.10
578;DHT22;275;48.492;9.214;2023-12-29T13:12:39;14.40;26.50
578;DHT22;275;48.492;9.214;2023-12-29T13:15:06;14.20;26.80
578;DHT22;275;48.492;9.214;2023-12-29T13:17:34;14.30;26.80
578;DHT22;275;48.492;9.214;2023-12-29T13:20:01;13.80;27.50
578;DHT22;275;48.492;9.214;2023-12-29T13:22:30;13.80;27.30
578;DHT22;275;48.492;9.214;2023-12-29T13:24:59;13.30;28.00
578;DHT22;275;48.492;9.214;2023-12-29T13:27:26;13.50;27.40
578;DHT22;275;48.492;9.214;2023-12-29T13:29:53;13.10;27.40
578;DHT22;275;48.492;9.214;2023-12-29T13:32:22;13.00;28.10
578;DHT22;275;48.492;9.214;2023-12-29T13:34:54;13.20;27.60
578;DHT22;275;48.492;9.214;2023-12-29T13:37:25;13.40;27.70
578;DHT22;275;48.492;9.214;2023-12-29T13:40:00;13.70;26.20
578;DHT22;275;48.492;9.214;2023-12-29T13:42:30;13.40;25.90
578;DHT22;275;48.492;9.214;2023-12-29T13:45:00;13.30;26.40
578;DHT22;275;48.492;9.214;2023-12-29T13:47:28;13.70;25.60
578;DHT22;275;48.492;9.214;2023-12-29T13:49:55;13.40;25.70
578;DHT22;275;48.492;9.214;2023-12-29T13:52:22;12.90;26.30
578;DHT22;275;48.492;9.214;2023-12-29T13:54:49;13.30;26.00
578;DHT22;275;48.492;9.214;2023-12-29T13:57:17;13.70;24.90
578;DHT22;275;48.492;9.214;2023-12-29T13:59:44;13.80;25.00
578;DHT22;275;48.492;9.214;2023-12-29T14:02:23;13.60;24.50
578;DHT22;275;48.492;9.214;2023-12-29T14:05:11;13.60;25.10
578;DHT22;275;48.492;9.214;2023-12-29T14:07:44;13.40;25.30
578;DHT22;275;48.492;9.214;2023-12-29T14:10:12;13.10;25.40
578;DHT22;275;48.492;9.214;2023-12-29T14:12:40;13.10;25.30
578;DHT22;275;48.492;9.214;2023-12-29T14:15:08;13.20;24.70
578;DHT22;275;48.492;9.214;2023-12-29T14:17:38;12.90;25.00
578;DHT22;275;48.492;9.214;2023-12-29T14:20:06;13.30;25.10
578;DHT22;275;48.492;9.214;2023-12-29T14:22:34;13.50;24.10
578;DHT22;275;48.492;9.214;2023-12-29T14:25:05;13.90;23.80
578;DHT22;275;48.492;9.214;2023-12-29T14:27:33;14.00;23.40
578;DHT22;275;48.492;9.214;2023-12-29T14:30:01;13.80;23.80
578;DHT22;275;48.492;9.214;2023-12-29T14:32:28;14.20;23.10
578;DHT22;275;48.492;9.214;2023-12-29T14:34:56;14.60;22.40
578;DHT22;275;48.492;9.214;2023-12-29T14:37:22;14.80;21.90
578;DHT22;275;48.492;9.214;2023-12-29T14:39:50;14.90;21.80
578;DHT22;275;48.492;9.214;2023-12-29T14:42:17;14.70;22.30
578;DHT22;275;48.492;9.214;2023-12-29T14:44:46;14.40;22.40
578;DHT22;275;48.492;9.214;2023-12-29T14:47:15;13.80;23.20
578;DHT22;275;48.492;9.214;2023-12-29T14:49:43;13.80;23.50
578;DHT22;275;48.492;9.214;2023-12-29T14:52:10;14.00;22.90
578;DHT22;275;48.492;9.214;2023-12-29T14:54:38;13.80;23.30
578;DHT22;275;48.492;9.214;2023-12-29T14:57:05;13.90;23.10
578;DHT22;275;48.492;9.214;2023-12-29T14:59:32;13.90;23.40
578;DHT22;275;48.492;9.214;2023-12-29T15:02:00;13.40;23.40
578;DHT22;275;48.492;9.214;2023-12-29T15:04:28;12.90;24.80
578;DHT22;275;48.492;9.214;2023-12-29T15:06:57;12.90;24.80
578;DHT22;275;48.492;9.214;2023-12-29T15:09:24;12.90;24.70
578;DHT22;275;48.492;9.214;2023-12-29T15:11:50;12.50;25.20
578;DHT22;275;48.492;9.214;2023-12-29T15:14:18;13.00;24.70
578;DHT22;275;48.492;9.214;2023-12-29T15:16:45;13.20;24.30
578;DHT22;275;48.492;9.214;2023-12-29T15:19:12;12.60;25.20
578;DHT22;275;48.492;9.214;2023-12-29T15:21:40;12.90;24.90
578;DHT22;275;48.492;9.214;2023-12-29T15:24:08;12.60;24.90
578;DHT22;275;48.492;9.214;2023-12-29T15:26:35;12.60;25.30
578;DHT22;275;48.492;9.214;2023-12-29T15:29:01;12.50;25.70
578;DHT22;275;48.492;9.214;2023-12-29T15:31:29;12.70;25.10
578;DHT22;275;48.492;9.214;2023-12-29T15:33:56;13.30;24.20
578;DHT22;275;48.492;9.214;2023-12-29T15:36:23;13.40;23.70
578;DHT22;275;48.492;9.214;2023-12-29T15:38:51;12.70;24.70
578;DHT22;275;48.492;9.214;2023-12-29T15:41:18;12.50;25.00
578;DHT22;275;48.492;9.214;2023-12-29T15:43:45;12.60;25.20
578;DHT22;275;48.492;9.214;2023-12-29T15:46:15;13.00;24.60
578;DHT22;275;48.492;9.214;2023-12-29T15:48:42;13.10;24.40
578;DHT22;275;48.492;9.214;2023-12-29T15:51:09;12.80;24.60
578;DHT22;275;48.492;9.214;2023-12-29T15:53:36;12.70;25.00
578;DHT22;275;48.492;9.214;2023-12-29T15:56:06;12.60;25.10
578;DHT22;275;48.492;9.214;2023-12-29T15:58:33;12.30;25.50
578;DHT22;275;48.492;9.214;2023-12-29T16:01:00;12.50;25.40
578;DHT22;275;48.492;9.214;2023-12-29T16:03:27;12.60;25.00
578;DHT22;275;48.492;9.214;2023-12-29T16:05:57;12.20;25.60
578;DHT22;275;48.492;9.214;2023-12-29T16:08:26;12.40;25.60
578;DHT22;275;48.492;9.214;2023-12-29T16:10:53;12.70;25.00
578;DHT22;275;48.492;9.214;2023-12-29T16:13:21;12.40;25.50
578;DHT22;275;48.492;9.214;2023-12-29T16:15:48;12.40;25.70
578;DHT22;275;48.492;9.214;2023-12-29T16:18:14;12.20;25.70
578;DHT22;275;48.492;9.214;2023-12-29T16:20:41;12.20;26.00
578;DHT22;275;48.492;9.214;2023-12-29T16:23:08;12.10;25.90
578;DHT22;275;48.492;9.214;2023-12-29T16:25:35;12.00;26.40
578;DHT22;275;48.492;9.214;2023-12-29T16:28:02;11.90;26.60
578;DHT22;275;48.492;9.214;2023-12-29T16:30:30;12.00;26.60
578;DHT22;275;48.492;9.214;2023-12-29T16:32:57;12.20;26.10
578;DHT22;275;48.492;9.214;2023-12-29T16:35:24;12.10;26.30
578;DHT22;275;48.492;9.214;2023-12-29T16:37:50;12.20;26.30
578;DHT22;275;48.492;9.214;2023-12-29T16:40:18;12.20;26.30
578;DHT22;275;48.492;9.214;2023-12-29T16:42:45;12.60;25.80